createdAt,value
2023-07-11T00:01:19.495Z,100.00
2023-07-11T00:03:47.380Z,100.00
2023-07-11T00:06:19.545Z,100.00
2023-07-11T00:08:47.374Z,100.00
2023-07-11T00:11:17.875Z,100.00
2023-07-11T00:13:45.416Z,100.00
2023-07-11T00:16:15.424Z,100.00
2023-07-11T00:18:45.268Z,100.00
2023-07-11T00:21:12.966Z,100.00
2023-07-11T00:23:42.288Z,100.00
2023-07-11T00:26:10.648Z,100.00
2023-07-11T00:28:38.342Z,100.00
2023-07-11T00:31:05.790Z,100.00
2023-07-11T00:33:34.185Z,100.00
2023-07-11T00:36:01.600Z,100.00
2023-07-11T00:38:29.102Z,100.00
2023-07-11T00:40:58.048Z,100.00
2023-07-11T00:43:25.350Z,100.00
2023-07-11T00:46:14.064Z,100.00
2023-07-11T00:48:48.988Z,100.00
2023-07-11T00:51:30.598Z,100.00
2023-07-11T00:53:58.934Z,100.00
2023-07-11T00:56:30.431Z,100.00
2023-07-11T00:58:58.869Z,100.00
2023-07-11T01:01:27.225Z,100.00
2023-07-11T01:03:55.703Z,100.00
2023-07-11T01:06:28.265Z,100.00
2023-07-11T01:08:57.920Z,100.00
2023-07-11T01:11:28.064Z,100.00
2023-07-11T01:13:55.813Z,100.00
2023-07-11T01:16:23.882Z,100.00
2023-07-11T01:18:51.572Z,100.00
2023-07-11T01:21:20.177Z,100.00
2023-07-11T01:23:48.899Z,100.00
2023-07-11T01:26:17.137Z,100.00
2023-07-11T01:28:46.811Z,100.00
2023-07-11T01:31:15.044Z,100.00
2023-07-11T01:33:42.943Z,100.00
2023-07-11T01:36:10.916Z,100.00
2023-07-11T01:38:38.659Z,100.00
2023-07-11T01:41:06.056Z,100.00
2023-07-11T01:43:33.998Z,100.00
2023-07-11T01:46:01.587Z,100.00
2023-07-11T01:48:30.908Z,100.00
2023-07-11T01:50:58.287Z,100.00
2023-07-11T01:53:25.763Z,100.00
2023-07-11T01:55:57.965Z,100.00
2023-07-11T01:58:27.355Z,100.00
2023-07-11T02:00:56.655Z,100.00
2023-07-11T02:03:25.921Z,100.00
2023-07-11T02:05:56.713Z,100.00
2023-07-11T02:08:24.115Z,100.00
2023-07-11T02:10:51.645Z,100.00
2023-07-11T02:13:20.104Z,100.00
2023-07-11T02:15:48.261Z,100.00
2023-07-11T02:18:15.744Z,100.00
2023-07-11T02:20:46.593Z,100.00
2023-07-11T02:23:16.541Z,100.00
2023-07-11T02:25:44.129Z,100.00
2023-07-11T02:28:11.763Z,100.00
2023-07-11T02:30:39.364Z,100.00
2023-07-11T02:33:06.739Z,100.00
2023-07-11T02:35:34.244Z,100.00
2023-07-11T02:38:02.246Z,100.00
2023-07-11T02:40:29.671Z,100.00
2023-07-11T02:42:57.168Z,100.00
2023-07-11T02:45:24.766Z,100.00
2023-07-11T02:47:52.133Z,100.00
2023-07-11T02:50:19.671Z,100.00
2023-07-11T02:52:48.514Z,100.00
2023-07-11T02:55:15.928Z,100.00
2023-07-11T02:57:44.603Z,100.00
2023-07-11T03:00:12.666Z,100.00
2023-07-11T03:02:40.377Z,100.00
2023-07-11T03:05:09.530Z,100.00
2023-07-11T03:07:37.175Z,100.00
2023-07-11T03:10:04.975Z,100.00
2023-07-11T03:12:32.317Z,100.00
2023-07-11T03:15:02.747Z,100.00
2023-07-11T03:17:31.768Z,100.00
2023-07-11T03:19:59.270Z,100.00
2023-07-11T03:22:28.136Z,100.00
2023-07-11T03:24:55.677Z,100.00
2023-07-11T03:27:24.361Z,100.00
2023-07-11T03:29:51.767Z,100.00
2023-07-11T03:32:19.845Z,100.00
2023-07-11T03:34:54.230Z,100.00
2023-07-11T03:37:26.583Z,100.00
2023-07-11T03:39:54.422Z,100.00
2023-07-11T03:42:21.965Z,100.00
2023-07-11T03:44:49.334Z,100.00
2023-07-11T03:47:16.780Z,100.00
2023-07-11T03:49:44.434Z,100.00
2023-07-11T03:52:11.660Z,100.00
2023-07-11T03:54:39.376Z,100.00
2023-07-11T03:57:06.833Z,100.00
2023-07-11T03:59:34.407Z,100.00
2023-07-11T04:02:01.656Z,100.00
2023-07-11T04:04:29.188Z,100.00
2023-07-11T04:06:57.481Z,100.00
2023-07-11T04:09:24.795Z,100.00
2023-07-11T04:11:52.874Z,100.00
2023-07-11T04:14:20.188Z,100.00
2023-07-11T04:16:47.860Z,100.00
2023-07-11T04:19:15.401Z,100.00
2023-07-11T04:21:42.767Z,100.00
2023-07-11T04:24:10.114Z,100.00
2023-07-11T04:26:37.921Z,100.00
2023-07-11T04:29:05.252Z,100.00
2023-07-11T04:31:32.985Z,100.00
2023-07-11T04:34:00.291Z,100.00
2023-07-11T04:36:28.305Z,100.00
2023-07-11T04:38:55.924Z,100.00
2023-07-11T04:41:23.423Z,100.00
2023-07-11T04:43:51.087Z,100.00
2023-07-11T04:46:18.442Z,100.00
2023-07-11T04:48:47.669Z,100.00
2023-07-11T04:51:15.875Z,100.00
2023-07-11T04:53:45.316Z,100.00
2023-07-11T04:56:13.096Z,100.00
2023-07-11T04:58:40.574Z,100.00
2023-07-11T05:01:11.077Z,100.00
2023-07-11T05:03:38.838Z,100.00
2023-07-11T05:06:08.089Z,100.00
2023-07-11T05:08:36.078Z,100.00
2023-07-11T05:11:12.405Z,100.00
2023-07-11T05:13:41.266Z,100.00
2023-07-11T05:16:12.197Z,100.00
2023-07-11T05:18:45.212Z,100.00
2023-07-11T05:21:15.138Z,100.00
2023-07-11T05:23:42.873Z,100.00
2023-07-11T05:26:10.968Z,100.00
2023-07-11T05:28:38.563Z,100.00
2023-07-11T05:31:07.739Z,100.00
2023-07-11T05:33:35.648Z,100.00
2023-07-11T05:36:10.803Z,100.00
2023-07-11T05:38:38.107Z,100.00
2023-07-11T05:41:06.641Z,100.00
2023-07-11T05:43:35.710Z,100.00
2023-07-11T05:46:03.954Z,100.00
2023-07-11T05:48:31.637Z,100.00
2023-07-11T05:51:07.876Z,100.00
2023-07-11T05:53:35.782Z,100.00
2023-07-11T05:56:03.630Z,100.00
2023-07-11T05:58:32.516Z,100.00
2023-07-11T06:01:00.845Z,100.00
2023-07-11T06:03:30.830Z,100.00
2023-07-11T06:06:03.331Z,100.00
2023-07-11T06:08:32.366Z,99.54
2023-07-11T06:11:02.504Z,99.16
2023-07-11T06:13:31.210Z,100.00
2023-07-11T06:16:16.671Z,100.00
2023-07-11T06:18:44.898Z,100.00
2023-07-11T06:21:12.867Z,100.00
2023-07-11T06:23:40.561Z,100.00
2023-07-11T06:26:10.385Z,100.00
2023-07-11T06:28:39.114Z,100.00
2023-07-11T06:31:08.405Z,100.00
2023-07-11T06:33:36.428Z,100.00
2023-07-11T06:36:05.961Z,100.00
2023-07-11T06:38:33.629Z,100.00
2023-07-11T06:41:01.329Z,100.00
2023-07-11T06:43:30.380Z,100.00
2023-07-11T06:45:59.950Z,100.00
2023-07-11T06:48:30.032Z,100.00
2023-07-11T06:51:04.239Z,100.00
2023-07-11T06:53:34.655Z,100.00
2023-07-11T06:56:02.695Z,100.00
2023-07-11T06:58:33.068Z,100.00
2023-07-11T07:01:04.014Z,100.00
2023-07-11T07:03:33.029Z,100.00
2023-07-11T07:06:06.935Z,100.00
2023-07-11T07:08:34.396Z,100.00
2023-07-11T07:11:01.883Z,100.00
2023-07-11T07:13:29.806Z,100.00
2023-07-11T07:15:59.577Z,100.00
2023-07-11T07:18:33.703Z,100.00
2023-07-11T07:21:01.844Z,100.00
2023-07-11T07:23:29.734Z,100.00
2023-07-11T07:25:59.999Z,100.00
2023-07-11T07:28:28.806Z,100.00
2023-07-11T07:30:57.603Z,100.00
2023-07-11T07:33:27.471Z,100.00
2023-07-11T07:36:04.426Z,100.00
2023-07-11T07:38:33.120Z,100.00
2023-07-11T07:41:08.040Z,100.00
2023-07-11T07:43:46.241Z,100.00
2023-07-11T07:46:16.659Z,100.00
2023-07-11T07:48:46.982Z,100.00
2023-07-11T07:51:17.685Z,99.98
2023-07-11T07:53:45.820Z,100.00
2023-07-11T07:56:16.442Z,99.73
2023-07-11T07:58:45.024Z,99.92
2023-07-11T08:01:14.654Z,100.00
2023-07-11T08:03:42.333Z,99.55
2023-07-11T08:06:16.641Z,98.84
2023-07-11T08:08:48.960Z,97.42
2023-07-11T08:11:20.876Z,97.18
2023-07-11T08:13:59.261Z,97.98
2023-07-11T08:16:33.029Z,99.43
2023-07-11T08:19:06.868Z,100.00
2023-07-11T08:21:37.254Z,100.00
2023-07-11T08:24:07.830Z,100.00
2023-07-11T08:26:35.992Z,100.00
2023-07-11T08:29:10.106Z,99.26
2023-07-11T08:31:44.185Z,99.71
2023-07-11T08:34:11.903Z,99.98
2023-07-11T08:36:40.587Z,97.31
2023-07-11T08:39:09.117Z,96.52
2023-07-11T08:41:49.086Z,94.45
2023-07-11T08:44:19.842Z,95.12
2023-07-11T08:46:56.962Z,95.01
2023-07-11T08:49:33.605Z,95.12
2023-07-11T08:52:03.902Z,96.19
2023-07-11T08:54:36.835Z,95.31
2023-07-11T08:57:04.906Z,96.70
2023-07-11T08:59:54.772Z,96.27
2023-07-11T09:02:30.769Z,96.73
2023-07-11T09:05:00.308Z,97.12
2023-07-11T09:07:44.275Z,96.79
2023-07-11T09:10:26.669Z,98.52
2023-07-11T09:13:15.088Z,98.94
2023-07-11T09:15:59.506Z,97.09
2023-07-11T09:18:58.037Z,96.80
2023-07-11T09:22:07.406Z,96.11
2023-07-11T09:25:12.440Z,94.06
2023-07-11T09:27:49.380Z,91.67
2023-07-11T09:30:32.967Z,90.06
2023-07-11T09:35:51.969Z,90.22
2023-07-11T09:38:41.978Z,82.81
2023-07-11T09:41:40.858Z,84.04
2023-07-11T09:44:16.211Z,84.76
2023-07-11T09:46:43.503Z,84.01
2023-07-11T09:49:19.724Z,83.97
2023-07-11T09:51:57.075Z,81.77
2023-07-11T09:54:45.494Z,78.63
2023-07-11T09:57:19.805Z,78.60
2023-07-11T10:00:16.020Z,76.32
2023-07-11T10:02:48.213Z,71.54
2023-07-11T10:05:19.269Z,76.72
2023-07-11T10:07:48.906Z,76.57
2023-07-11T10:10:16.587Z,75.46
2023-07-11T10:12:45.159Z,74.05
2023-07-11T10:15:17.676Z,73.83
2023-07-11T10:17:46.379Z,72.38
2023-07-11T10:20:20.037Z,72.01
2023-07-11T10:22:54.755Z,69.32
2023-07-11T10:25:32.275Z,70.90
2023-07-11T10:28:32.581Z,69.14
2023-07-11T10:31:22.527Z,72.75
2023-07-11T10:34:28.978Z,66.55
2023-07-11T10:37:12.316Z,63.51
2023-07-11T10:39:49.021Z,67.48
2023-07-11T10:42:16.429Z,66.59
2023-07-11T10:44:48.817Z,65.15
2023-07-11T10:47:29.054Z,63.93
2023-07-11T10:49:58.297Z,64.18
2023-07-11T10:52:27.933Z,68.36
2023-07-11T10:55:08.992Z,68.22
2023-07-11T10:57:45.513Z,66.86
2023-07-11T11:00:17.907Z,68.13
2023-07-11T11:03:13.554Z,68.96
2023-07-11T11:06:11.596Z,65.87
2023-07-11T11:08:57.074Z,66.02
2023-07-11T11:12:03.943Z,65.92
2023-07-11T11:14:53.451Z,66.34
2023-07-11T11:17:58.466Z,69.19
2023-07-11T11:21:18.404Z,68.24
2023-07-11T11:24:09.872Z,69.42
2023-07-11T11:27:01.351Z,72.19
2023-07-11T11:29:34.733Z,71.94
2023-07-11T11:32:26.324Z,67.93
2023-07-11T11:35:24.394Z,67.89
2023-07-11T11:38:06.951Z,70.62
2023-07-11T11:40:46.832Z,69.70
2023-07-11T11:43:20.370Z,71.16
2023-07-11T11:51:12.871Z,70.96
2023-07-11T11:53:48.201Z,71.94
2023-07-11T11:56:24.642Z,72.06
2023-07-11T11:59:05.553Z,66.27
2023-07-11T12:01:54.253Z,69.56
2023-07-11T12:04:31.262Z,69.98
2023-07-11T12:07:07.350Z,67.42
2023-07-11T12:09:34.733Z,70.39
2023-07-11T12:12:06.664Z,72.03
2023-07-11T12:14:54.017Z,64.73
2023-07-11T12:17:34.587Z,68.66
2023-07-11T12:20:02.023Z,66.20
2023-07-11T12:22:48.583Z,59.23
2023-07-11T12:25:24.618Z,60.80
2023-07-11T12:27:54.852Z,61.09
2023-07-11T12:30:28.416Z,60.26
2023-07-11T12:33:15.883Z,61.16
2023-07-11T12:35:44.234Z,61.43
2023-07-11T12:38:29.557Z,59.28
2023-07-11T12:41:43.837Z,57.41
2023-07-11T12:44:17.161Z,60.29
2023-07-11T12:46:49.959Z,59.33
2023-07-11T12:49:40.375Z,59.40
2023-07-11T12:52:13.784Z,59.63
2023-07-11T12:54:43.832Z,59.75
2023-07-11T12:57:24.630Z,59.93
2023-07-11T12:59:52.265Z,58.70
2023-07-11T13:02:27.281Z,57.67
2023-07-11T13:04:58.325Z,60.00
2023-07-11T13:07:31.963Z,58.20
2023-07-11T13:10:02.362Z,60.96
2023-07-11T13:12:40.707Z,60.45
2023-07-11T13:15:17.196Z,59.70
2023-07-11T13:17:47.616Z,62.35
2023-07-11T13:20:24.654Z,61.57
2023-07-11T13:22:53.338Z,62.28
2023-07-11T13:25:33.595Z,62.70
2023-07-11T13:28:01.205Z,65.04
2023-07-11T13:30:36.607Z,62.61
2023-07-11T13:33:23.787Z,64.26
2023-07-11T13:35:54.919Z,61.31
2023-07-11T13:38:33.144Z,61.22
2023-07-11T13:41:01.312Z,62.55
2023-07-11T13:43:28.796Z,65.08
2023-07-11T13:46:00.238Z,64.19
2023-07-11T13:48:30.879Z,66.61
2023-07-11T13:51:19.758Z,66.90
2023-07-11T13:53:56.712Z,67.88
2023-07-11T13:56:24.923Z,69.04
2023-07-11T13:58:53.902Z,70.16
2023-07-11T14:01:23.876Z,69.87
2023-07-11T14:03:53.491Z,70.10
2023-07-11T14:06:22.124Z,71.60
2023-07-11T14:08:50.354Z,71.59
2023-07-11T14:11:31.748Z,71.47
2023-07-11T14:13:59.122Z,73.26
2023-07-11T14:16:28.031Z,72.07
2023-07-11T14:18:56.478Z,72.20
2023-07-11T14:21:24.860Z,71.96
2023-07-11T14:23:52.203Z,70.78
2023-07-11T14:26:19.553Z,73.36
2023-07-11T14:28:53.534Z,72.42
2023-07-11T14:31:22.411Z,73.23
2023-07-11T14:33:49.824Z,73.93
2023-07-11T14:36:17.076Z,75.02
2023-07-11T14:38:44.498Z,74.40
2023-07-11T14:41:12.983Z,75.41
2023-07-11T14:43:40.534Z,74.06
2023-07-11T14:46:07.914Z,72.01
2023-07-11T14:48:35.146Z,72.45
2023-07-11T14:51:05.794Z,72.46
2023-07-11T14:53:40.645Z,73.25
2023-07-11T14:58:58.045Z,71.95
2023-07-11T15:01:25.925Z,73.11
2023-07-11T15:16:25.181Z,72.69
2023-07-11T15:18:52.514Z,74.72
2023-07-11T15:21:19.926Z,73.94
2023-07-11T15:23:48.144Z,74.03
2023-07-11T15:26:15.570Z,75.85
2023-07-11T15:28:42.801Z,76.80
2023-07-11T15:31:15.712Z,78.25
2023-07-11T15:33:45.593Z,81.50
2023-07-11T15:36:12.922Z,82.75
2023-07-11T15:38:40.354Z,82.55
2023-07-11T15:41:15.771Z,84.24
2023-07-11T15:43:44.500Z,85.52
2023-07-11T15:46:22.442Z,86.32
2023-07-11T15:48:54.980Z,86.34
2023-07-11T15:51:22.484Z,87.07
2023-07-11T15:53:50.243Z,87.56
2023-07-11T15:56:18.105Z,88.29
2023-07-11T15:58:45.400Z,89.18
2023-07-11T16:01:12.779Z,89.05
2023-07-11T16:03:40.241Z,89.01
2023-07-11T16:06:14.247Z,89.03
2023-07-11T16:08:42.240Z,89.49
2023-07-11T16:11:11.696Z,90.70
2023-07-11T16:13:39.541Z,91.93
2023-07-11T16:16:25.227Z,92.51
2023-07-11T16:18:53.043Z,92.94
2023-07-11T16:21:22.277Z,93.66
2023-07-11T16:23:49.598Z,93.97
2023-07-11T16:26:25.715Z,94.82
2023-07-11T16:28:53.220Z,94.66
2023-07-11T16:31:20.583Z,94.13
2023-07-11T16:33:47.920Z,94.23
2023-07-11T16:36:16.891Z,94.55
2023-07-11T16:38:44.346Z,94.68
2023-07-11T16:41:11.876Z,95.70
2023-07-11T16:43:39.220Z,96.38
2023-07-11T16:46:06.570Z,96.06
2023-07-11T16:48:33.949Z,96.02
2023-07-11T16:51:05.226Z,95.55
2023-07-11T16:53:33.545Z,96.23
2023-07-11T16:56:02.330Z,96.65
2023-07-11T16:58:40.507Z,97.33
2023-07-11T17:01:14.558Z,96.64
2023-07-11T17:03:43.908Z,96.87
2023-07-11T17:06:29.229Z,97.63
2023-07-11T17:08:58.321Z,98.68
2023-07-11T17:11:26.020Z,98.76
2023-07-11T17:13:53.657Z,97.89
2023-07-11T17:16:24.578Z,98.13
2023-07-11T17:18:51.974Z,98.38
2023-07-11T17:21:21.016Z,98.86
2023-07-11T17:23:48.915Z,98.50
2023-07-11T17:26:16.724Z,98.82
2023-07-11T17:28:44.128Z,98.90
2023-07-11T17:31:16.752Z,99.29
2023-07-11T17:33:44.151Z,99.70
2023-07-11T17:36:13.786Z,99.35
2023-07-11T17:38:41.827Z,99.27
2023-07-11T17:41:09.627Z,98.54
2023-07-11T17:43:39.112Z,98.89
2023-07-11T17:46:41.107Z,98.98
2023-07-11T17:49:01.777Z,99.09
2023-07-11T17:51:29.375Z,99.68
2023-07-11T17:53:56.947Z,100.00
2023-07-11T17:56:24.584Z,100.00
2023-07-11T17:58:53.799Z,100.00
2023-07-11T18:01:21.984Z,100.00
2023-07-11T18:03:50.058Z,100.00
2023-07-11T18:06:24.397Z,100.00
2023-07-11T18:08:51.858Z,100.00
2023-07-11T18:11:19.110Z,100.00
2023-07-11T18:13:49.312Z,100.00
2023-07-11T18:16:23.157Z,100.00
2023-07-11T18:18:50.762Z,100.00
2023-07-11T18:21:19.147Z,100.00
2023-07-11T18:23:46.622Z,100.00
2023-07-11T18:26:20.065Z,100.00
2023-07-11T18:28:49.683Z,100.00
2023-07-11T18:31:24.116Z,100.00
2023-07-11T18:33:53.555Z,100.00
2023-07-11T18:36:24.715Z,100.00
2023-07-11T18:38:53.836Z,100.00
2023-07-11T18:41:21.414Z,100.00
2023-07-11T18:43:48.777Z,100.00
2023-07-11T18:46:18.571Z,100.00
2023-07-11T18:48:47.278Z,100.00
2023-07-11T18:51:16.400Z,100.00
2023-07-11T18:53:44.886Z,100.00
2023-07-11T18:56:14.870Z,100.00
2023-07-11T18:58:42.227Z,100.00
2023-07-11T19:01:11.942Z,100.00
2023-07-11T19:03:39.926Z,100.00
2023-07-11T19:06:17.596Z,100.00
2023-07-11T19:08:48.146Z,100.00
2023-07-11T19:11:17.749Z,100.00
2023-07-11T19:13:46.258Z,100.00
2023-07-11T19:16:26.027Z,100.00
2023-07-11T19:18:53.880Z,100.00
2023-07-11T19:21:21.206Z,100.00
2023-07-11T19:23:48.615Z,100.00
2023-07-11T19:26:18.937Z,100.00
2023-07-11T19:28:46.989Z,100.00
2023-07-11T19:31:16.422Z,100.00
2023-07-11T19:33:44.106Z,100.00
2023-07-11T19:36:18.005Z,100.00
2023-07-11T19:38:50.019Z,100.00
2023-07-11T19:41:27.302Z,100.00
2023-07-11T19:43:55.305Z,100.00
2023-07-11T19:46:25.389Z,100.00
2023-07-11T19:49:02.442Z,100.00
2023-07-11T19:51:30.021Z,100.00
2023-07-11T19:53:57.608Z,100.00
2023-07-11T19:56:27.599Z,100.00
2023-07-11T20:01:26.616Z,100.00
2023-07-11T20:03:55.435Z,100.00
2023-07-11T20:06:24.661Z,100.00
2023-07-11T20:08:53.318Z,100.00
2023-07-11T20:11:22.605Z,100.00
2023-07-11T20:13:50.474Z,100.00
2023-07-11T20:16:24.881Z,100.00
2023-07-11T20:18:53.346Z,100.00
2023-07-11T20:21:24.970Z,100.00
2023-07-11T20:23:55.825Z,100.00
2023-07-11T20:26:23.368Z,100.00
2023-07-11T20:28:55.917Z,100.00
2023-07-11T20:31:24.372Z,100.00
2023-07-11T20:33:51.934Z,100.00
2023-07-11T20:36:29.566Z,100.00
2023-07-11T20:38:58.340Z,100.00
2023-07-11T20:41:26.726Z,100.00
2023-07-11T20:43:54.355Z,100.00
2023-07-11T20:46:23.792Z,100.00
2023-07-11T20:48:52.061Z,100.00
2023-07-11T20:51:21.495Z,100.00
2023-07-11T20:53:49.460Z,100.00
2023-07-11T20:56:23.606Z,100.00
2023-07-11T20:58:53.339Z,100.00
2023-07-11T21:01:23.941Z,100.00
2023-07-11T21:03:52.551Z,100.00
2023-07-11T21:06:42.533Z,100.00
2023-07-11T21:09:15.439Z,100.00
2023-07-11T21:11:47.660Z,100.00
2023-07-11T21:14:15.108Z,100.00
2023-07-11T21:16:42.616Z,100.00
2023-07-11T21:19:21.148Z,100.00
2023-07-11T21:21:50.511Z,100.00
2023-07-11T21:24:18.273Z,100.00
2023-07-11T21:26:45.665Z,100.00
2023-07-11T21:29:14.029Z,100.00
2023-07-11T21:31:42.064Z,100.00
2023-07-11T21:34:10.070Z,100.00
2023-07-11T21:36:37.384Z,100.00
2023-07-11T21:39:05.190Z,100.00
2023-07-11T21:41:32.537Z,100.00
2023-07-11T21:43:59.932Z,100.00
2023-07-11T21:46:31.154Z,100.00
2023-07-11T21:49:04.680Z,100.00
2023-07-11T21:51:33.513Z,100.00
2023-07-11T21:54:01.027Z,100.00
2023-07-11T21:56:31.037Z,100.00
2023-07-11T21:59:02.221Z,100.00
2023-07-11T22:01:29.965Z,100.00
2023-07-11T22:03:58.477Z,100.00
2023-07-11T22:06:30.882Z,100.00
2023-07-11T22:09:00.681Z,100.00
2023-07-11T22:11:28.014Z,100.00
2023-07-11T22:13:55.275Z,100.00
2023-07-11T22:16:26.052Z,100.00
2023-07-11T22:18:54.660Z,100.00
2023-07-11T22:21:24.142Z,100.00
2023-07-11T22:23:51.524Z,100.00
2023-07-11T22:26:22.426Z,100.00
2023-07-11T22:28:51.317Z,100.00
2023-07-11T22:31:21.154Z,100.00
2023-07-11T22:33:50.363Z,100.00
2023-07-11T22:36:18.072Z,100.00
2023-07-11T22:38:45.367Z,100.00
2023-07-11T22:41:13.067Z,100.00
2023-07-11T22:43:40.784Z,100.00
2023-07-11T22:46:16.562Z,100.00
2023-07-11T22:48:44.001Z,100.00
2023-07-11T22:51:14.820Z,100.00
2023-07-11T22:53:43.139Z,100.00
2023-07-11T22:56:24.356Z,100.00
2023-07-11T22:58:53.530Z,100.00
2023-07-11T23:01:23.104Z,100.00
2023-07-11T23:03:50.589Z,100.00
2023-07-11T23:06:39.869Z,100.00
2023-07-11T23:09:13.466Z,100.00
2023-07-11T23:11:42.123Z,100.00
2023-07-11T23:14:09.427Z,100.00
2023-07-11T23:16:37.162Z,100.00
2023-07-11T23:19:06.501Z,100.00
2023-07-11T23:21:34.657Z,100.00
2023-07-11T23:24:02.596Z,100.00
2023-07-11T23:26:30.138Z,100.00
2023-07-11T23:28:58.030Z,100.00
2023-07-11T23:31:25.702Z,100.00
2023-07-11T23:33:53.112Z,100.00
2023-07-11T23:36:23.128Z,100.00
2023-07-11T23:38:52.120Z,100.00
2023-07-11T23:41:20.273Z,100.00
2023-07-11T23:43:48.682Z,100.00
2023-07-11T23:46:24.070Z,100.00
2023-07-11T23:48:52.249Z,100.00
2023-07-11T23:51:21.565Z,100.00
2023-07-11T23:53:50.742Z,100.00
2023-07-11T23:56:36.726Z,100.00
2023-07-11T23:59:05.102Z,100.00
